createdAt,value
2023-01-06T00:01:54.941Z,89.71
2023-01-06T00:06:01.538Z,89.91
2023-01-06T00:10:03.636Z,90.08
2023-01-06T00:14:05.576Z,90.02
2023-01-06T00:18:07.487Z,89.99
2023-01-06T00:22:09.791Z,89.99
2023-01-06T00:26:12.190Z,90.05
2023-01-06T00:30:14.096Z,89.96
2023-01-06T00:34:16.130Z,90.00
2023-01-06T00:38:18.935Z,89.95
2023-01-06T00:42:24.333Z,89.92
2023-01-06T00:46:28.559Z,89.96
2023-01-06T00:50:30.569Z,89.67
2023-01-06T00:54:32.757Z,89.69
2023-01-06T00:58:34.964Z,89.89
2023-01-06T01:02:36.954Z,89.79
2023-01-06T01:06:42.353Z,89.93
2023-01-06T01:10:46.006Z,89.81
2023-01-06T01:14:52.883Z,89.84
2023-01-06T01:18:55.491Z,89.94
2023-01-06T01:22:57.412Z,89.93
2023-01-06T01:26:59.556Z,89.89
2023-01-06T01:31:02.750Z,89.99
2023-01-06T01:35:05.264Z,89.92
2023-01-06T01:39:07.395Z,89.97
2023-01-06T01:43:11.641Z,89.87
2023-01-06T01:47:18.139Z,89.90
2023-01-06T01:51:26.424Z,89.84
2023-01-06T01:55:29.817Z,89.84
2023-01-06T01:59:35.706Z,89.90
2023-01-06T02:03:40.418Z,89.84
2023-01-06T02:07:42.655Z,89.76
2023-01-06T02:11:46.925Z,89.76
2023-01-06T02:15:53.636Z,89.83
2023-01-06T02:19:55.518Z,89.77
2023-01-06T02:24:36.729Z,89.88
2023-01-06T02:28:41.677Z,89.81
2023-01-06T02:32:51.703Z,89.87
2023-01-06T02:37:32.302Z,89.78
2023-01-06T02:41:55.183Z,89.66
2023-01-06T02:46:22.686Z,89.70
2023-01-06T02:50:39.991Z,89.78
2023-01-06T02:54:45.745Z,89.84
2023-01-06T02:59:02.047Z,89.71
2023-01-06T03:03:10.345Z,89.57
2023-01-06T03:07:15.246Z,89.61
2023-01-06T03:11:17.321Z,89.60
2023-01-06T03:15:20.257Z,89.54
2023-01-06T03:19:23.675Z,89.55
2023-01-06T03:23:25.886Z,89.54
2023-01-06T03:27:27.823Z,89.56
2023-01-06T03:31:37.375Z,89.56
2023-01-06T03:36:12.973Z,89.66
2023-01-06T03:41:03.287Z,89.64
2023-01-06T03:45:43.119Z,89.68
2023-01-06T03:49:56.506Z,89.44
2023-01-06T03:54:41.004Z,89.20
2023-01-06T03:58:45.778Z,89.07
2023-01-06T04:02:48.148Z,88.89
2023-01-06T04:06:52.464Z,88.87
2023-01-06T04:10:54.838Z,88.64
2023-01-06T04:14:57.838Z,88.55
2023-01-06T04:19:00.762Z,88.55
2023-01-06T04:23:02.856Z,88.60
2023-01-06T04:27:08.951Z,88.56
2023-01-06T04:31:11.607Z,88.55
2023-01-06T04:35:14.157Z,88.53
2023-01-06T04:39:16.287Z,88.36
2023-01-06T04:43:18.304Z,88.36
2023-01-06T04:47:20.234Z,88.32
2023-01-06T04:51:22.118Z,88.27
2023-01-06T04:55:24.609Z,88.33
2023-01-06T04:59:26.564Z,88.35
2023-01-06T05:03:28.802Z,88.12
2023-01-06T05:07:30.665Z,88.20
2023-01-06T05:11:33.236Z,88.32
2023-01-06T05:15:35.140Z,88.25
2023-01-06T05:19:37.000Z,88.10
2023-01-06T05:23:40.070Z,87.83
2023-01-06T05:27:43.147Z,87.69
2023-01-06T05:31:45.120Z,87.78
2023-01-06T05:35:47.155Z,87.82
2023-01-06T05:39:49.139Z,87.83
2023-01-06T05:43:51.080Z,87.85
2023-01-06T05:47:53.012Z,87.74
2023-01-06T05:51:54.935Z,87.68
2023-01-06T05:56:03.675Z,87.77
2023-01-06T06:00:07.499Z,88.06
2023-01-06T06:04:18.507Z,88.05
2023-01-06T06:08:20.421Z,88.05
2023-01-06T06:12:22.322Z,87.83
2023-01-06T06:16:27.482Z,87.84
2023-01-06T06:20:29.932Z,87.88
2023-01-06T06:24:31.952Z,88.04
2023-01-06T06:28:34.867Z,88.09
2023-01-06T06:32:36.734Z,87.91
2023-01-06T06:36:38.657Z,87.86
2023-01-06T06:40:44.491Z,87.98
2023-01-06T06:44:46.447Z,88.00
2023-01-06T06:48:49.713Z,88.07
2023-01-06T06:52:51.577Z,88.10
2023-01-06T06:56:53.445Z,88.17
2023-01-06T07:00:55.354Z,88.16
2023-01-06T07:04:57.302Z,88.01
2023-01-06T07:08:59.197Z,87.98
2023-01-06T07:13:01.088Z,88.10
2023-01-06T07:17:03.057Z,88.03
2023-01-06T07:21:05.666Z,88.02
2023-01-06T07:25:09.170Z,88.04
2023-01-06T07:29:11.168Z,87.96
2023-01-06T07:33:13.321Z,88.00
2023-01-06T07:37:15.207Z,88.02
2023-01-06T07:41:17.150Z,87.83
2023-01-06T07:45:19.087Z,87.54
2023-01-06T07:49:20.949Z,87.53
2023-01-06T07:53:22.881Z,87.65
2023-01-06T07:57:29.053Z,87.71
2023-01-06T08:01:31.116Z,87.73
2023-01-06T08:05:36.353Z,87.90
2023-01-06T08:09:38.240Z,87.95
2023-01-06T08:13:40.299Z,87.77
2023-01-06T08:17:42.588Z,87.70
2023-01-06T08:21:44.532Z,87.48
2023-01-06T08:25:46.381Z,87.53
2023-01-06T08:29:49.522Z,87.37
2023-01-06T08:33:53.128Z,87.38
2023-01-06T08:37:55.178Z,87.29
2023-01-06T08:41:57.089Z,87.01
2023-01-06T08:46:05.499Z,87.01
2023-01-06T08:50:07.704Z,87.18
2023-01-06T08:54:09.710Z,87.37
2023-01-06T08:58:12.176Z,87.39
2023-01-06T09:02:14.292Z,87.48
2023-01-06T09:06:17.810Z,87.31
2023-01-06T09:10:20.188Z,87.24
2023-01-06T09:14:22.264Z,87.39
2023-01-06T09:18:24.141Z,87.55
2023-01-06T09:22:26.350Z,87.41
2023-01-06T09:26:28.209Z,87.45
2023-01-06T09:30:30.346Z,87.35
2023-01-06T09:34:32.203Z,87.27
2023-01-06T09:38:34.192Z,87.27
2023-01-06T09:42:57.588Z,87.29
2023-01-06T09:47:02.327Z,87.37
2023-01-06T09:51:06.586Z,87.46
2023-01-06T09:55:17.821Z,87.48
2023-01-06T09:59:27.989Z,87.68
2023-01-06T10:03:30.077Z,87.71
2023-01-06T10:07:48.368Z,87.29
2023-01-06T10:12:24.144Z,87.40
2023-01-06T10:16:51.711Z,87.46
2023-01-06T10:20:53.538Z,87.48
2023-01-06T10:25:11.429Z,87.26
2023-01-06T10:29:20.407Z,87.49
2023-01-06T10:33:33.448Z,87.56
2023-01-06T10:37:41.316Z,87.58
2023-01-06T10:41:53.080Z,87.46
2023-01-06T10:45:55.240Z,87.46
2023-01-06T10:49:58.412Z,87.46
2023-01-06T10:54:09.177Z,87.37
2023-01-06T10:58:19.950Z,87.22
2023-01-06T11:02:23.295Z,87.27
2023-01-06T11:06:30.600Z,87.50
2023-01-06T11:10:41.677Z,87.58
2023-01-06T11:14:55.295Z,87.10
2023-01-06T11:19:00.646Z,86.92
2023-01-06T11:23:18.735Z,86.78
2023-01-06T11:27:22.772Z,87.14
2023-01-06T11:31:27.806Z,86.63
2023-01-06T11:35:32.882Z,86.87
2023-01-06T11:39:36.756Z,86.97
2023-01-06T11:43:44.802Z,87.02
2023-01-06T11:47:49.071Z,87.35
2023-01-06T11:51:58.573Z,87.31
2023-01-06T11:56:19.695Z,87.26
2023-01-06T12:00:42.451Z,87.24
2023-01-06T12:04:52.865Z,86.69
2023-01-06T12:09:30.289Z,86.82
2023-01-06T12:13:39.783Z,86.89
2023-01-06T12:17:54.842Z,87.07
2023-01-06T12:21:58.247Z,87.07
2023-01-06T12:26:04.406Z,87.05
2023-01-06T12:30:29.742Z,86.84
2023-01-06T12:34:47.177Z,86.86
2023-01-06T12:38:55.913Z,86.80
2023-01-06T12:43:04.549Z,86.74
2023-01-06T12:47:44.336Z,86.70
2023-01-06T12:51:51.785Z,86.89
2023-01-06T12:56:02.955Z,87.19
2023-01-06T13:00:22.216Z,87.14
2023-01-06T13:04:42.696Z,87.02
2023-01-06T13:08:58.966Z,86.98
2023-01-06T13:13:22.280Z,86.69
2023-01-06T13:17:31.890Z,86.71
2023-01-06T13:21:36.441Z,86.70
2023-01-06T13:26:03.382Z,86.91
2023-01-06T13:30:14.593Z,86.95
2023-01-06T13:34:35.049Z,86.99
2023-01-06T13:38:58.250Z,87.01
2023-01-06T13:43:13.138Z,86.88
2023-01-06T13:47:19.160Z,86.86
2023-01-06T13:51:27.850Z,87.02
2023-01-06T13:55:38.667Z,87.02
2023-01-06T13:59:51.719Z,86.95
2023-01-06T14:03:56.016Z,86.93
2023-01-06T14:08:01.361Z,87.24
2023-01-06T14:12:15.367Z,87.35
2023-01-06T14:16:19.052Z,87.19
2023-01-06T14:20:32.147Z,87.10
2023-01-06T14:24:47.442Z,86.94
2023-01-06T14:28:49.572Z,86.86
2023-01-06T14:32:51.447Z,86.83
2023-01-06T14:36:55.217Z,86.84
2023-01-06T14:41:04.266Z,86.75
2023-01-06T14:45:15.750Z,86.90
2023-01-06T14:49:27.299Z,87.09
2023-01-06T14:53:36.880Z,87.05
2023-01-06T14:57:39.689Z,87.16
2023-01-06T15:01:44.422Z,87.11
2023-01-06T15:05:46.394Z,87.03
2023-01-06T15:09:50.822Z,87.22
2023-01-06T15:13:53.527Z,87.29
2023-01-06T15:17:57.496Z,87.39
2023-01-06T15:22:05.023Z,87.41
2023-01-06T15:26:19.396Z,87.32
2023-01-06T15:30:26.569Z,87.31
2023-01-06T15:34:42.425Z,87.31
2023-01-06T15:38:46.634Z,87.35
2023-01-06T15:42:48.965Z,87.32
2023-01-06T15:46:55.279Z,87.43
2023-01-06T15:50:57.324Z,87.62
2023-01-06T15:55:03.496Z,87.68
2023-01-06T15:59:13.593Z,87.63
2023-01-06T16:03:24.966Z,87.67
2023-01-06T16:07:35.373Z,87.85
2023-01-06T16:11:55.444Z,87.87
2023-01-06T16:16:02.795Z,87.96
2023-01-06T16:20:20.443Z,87.97
2023-01-06T16:24:28.676Z,88.05
2023-01-06T16:28:30.975Z,88.04
2023-01-06T16:32:39.991Z,87.98
2023-01-06T16:36:41.977Z,88.11
2023-01-06T16:40:43.877Z,88.16
2023-01-06T16:45:00.503Z,88.18
2023-01-06T16:49:08.345Z,88.28
2023-01-06T16:53:10.158Z,88.16
2023-01-06T16:57:12.402Z,88.14
2023-01-06T17:01:20.941Z,88.23
2023-01-06T17:05:27.269Z,88.32
2023-01-06T17:09:29.601Z,88.44
2023-01-06T17:13:34.422Z,88.37
2023-01-06T17:17:38.682Z,88.24
2023-01-06T17:21:40.912Z,88.17
2023-01-06T17:25:44.273Z,88.14
2023-01-06T17:29:46.735Z,88.22
2023-01-06T17:33:48.865Z,88.34
2023-01-06T17:37:51.040Z,88.39
2023-01-06T17:42:22.152Z,88.43
2023-01-06T17:46:32.890Z,88.33
2023-01-06T17:50:35.347Z,88.36
2023-01-06T17:54:55.971Z,88.42
2023-01-06T17:59:04.776Z,88.58
2023-01-06T18:03:18.698Z,88.70
2023-01-06T18:07:21.025Z,88.69
2023-01-06T18:11:33.739Z,88.75
2023-01-06T18:15:36.022Z,88.66
2023-01-06T18:19:38.166Z,88.81
2023-01-06T18:23:42.310Z,88.85
2023-01-06T18:27:45.048Z,89.02
2023-01-06T18:31:49.648Z,89.13
2023-01-06T18:35:52.296Z,89.16
2023-01-06T18:40:01.195Z,89.29
2023-01-06T18:44:15.902Z,89.38
2023-01-06T18:48:27.412Z,89.53
2023-01-06T18:52:45.092Z,89.53
2023-01-06T18:56:47.037Z,89.58
2023-01-06T19:00:55.232Z,89.65
2023-01-06T19:04:57.235Z,89.69
2023-01-06T19:09:01.128Z,89.76
2023-01-06T19:13:13.886Z,89.96
2023-01-06T19:17:21.778Z,90.12
2023-01-06T19:21:24.242Z,90.13
2023-01-06T19:25:33.199Z,90.18
2023-01-06T19:29:35.389Z,90.26
2023-01-06T19:33:52.497Z,90.42
2023-01-06T19:37:59.584Z,90.56
2023-01-06T19:42:07.541Z,90.71
2023-01-06T19:46:29.473Z,90.85
2023-01-06T19:50:31.410Z,90.87
2023-01-06T19:54:36.619Z,90.90
2023-01-06T19:58:38.551Z,90.95
2023-01-06T20:02:45.880Z,91.04
2023-01-06T20:06:48.252Z,91.32
2023-01-06T20:10:50.264Z,91.49
2023-01-06T20:14:52.281Z,91.59
2023-01-06T20:18:54.148Z,91.63
2023-01-06T20:22:56.030Z,91.68
2023-01-06T20:26:57.950Z,91.75
2023-01-06T20:31:00.272Z,91.94
2023-01-06T20:35:02.317Z,92.02
2023-01-06T20:39:04.200Z,92.16
2023-01-06T20:43:07.246Z,92.13
2023-01-06T20:47:09.155Z,92.15
2023-01-06T20:51:11.191Z,92.23
2023-01-06T20:55:13.861Z,92.37
2023-01-06T20:59:15.871Z,92.52
2023-01-06T21:03:17.780Z,92.64
2023-01-06T21:07:19.651Z,92.69
2023-01-06T21:11:21.515Z,92.75
2023-01-06T21:15:25.560Z,92.79
2023-01-06T21:19:27.516Z,92.84
2023-01-06T21:23:29.574Z,93.12
2023-01-06T21:27:31.481Z,93.23
2023-01-06T21:31:33.412Z,93.24
2023-01-06T21:35:35.339Z,93.24
2023-01-06T21:39:37.355Z,93.09
2023-01-06T21:43:39.373Z,93.25
2023-01-06T21:47:41.266Z,93.28
2023-01-06T21:51:43.498Z,93.50
2023-01-06T21:55:45.519Z,93.49
2023-01-06T21:59:47.452Z,93.44
2023-01-06T22:03:49.347Z,93.57
2023-01-06T22:07:53.456Z,93.73
2023-01-06T22:11:56.503Z,93.61
2023-01-06T22:16:00.224Z,93.63
2023-01-06T22:20:04.071Z,93.76
2023-01-06T22:24:08.951Z,93.80
2023-01-06T22:28:10.812Z,93.78
2023-01-06T22:32:12.727Z,93.87
2023-01-06T22:36:14.645Z,93.96
2023-01-06T22:40:17.025Z,94.12
2023-01-06T22:44:19.334Z,94.07
2023-01-06T22:48:21.241Z,94.07
2023-01-06T22:52:23.121Z,93.99
2023-01-06T22:56:25.117Z,94.00
2023-01-06T23:00:27.020Z,94.03
2023-01-06T23:04:28.893Z,94.23
2023-01-06T23:08:33.683Z,94.45
2023-01-06T23:12:37.405Z,94.25
2023-01-06T23:16:41.499Z,94.16
2023-01-06T23:20:43.419Z,94.21
2023-01-06T23:24:45.355Z,94.32
2023-01-06T23:28:47.420Z,94.41
2023-01-06T23:32:49.358Z,94.46
2023-01-06T23:36:51.409Z,94.43
2023-01-06T23:40:53.408Z,94.50
2023-01-06T23:44:55.320Z,94.50
2023-01-06T23:48:58.318Z,94.49
2023-01-06T23:53:00.291Z,94.22
2023-01-06T23:57:02.167Z,94.42
